sensor_id;sensor_type;location;lat;lon;timestamp;P1;durP1;ratioP1;P2;durP2;ratioP2
4132;SDS011;2080;51.038;7.008;2023-04-23T00:00:02;1999.90;;;999.90;;
4132;SDS011;2080;51.038;7.008;2023-04-23T00:02:29;1999.90;;;999.90;;
4132;SDS011;2080;51.038;7.008;2023-04-23T00:04:57;1999.90;;;999.90;;
4132;SDS011;2080;51.038;7.008;2023-04-23T00:07:28;1999.90;;;999.90;;
4132;SDS011;2080;51.038;7.008;2023-04-23T00:10:00;1999.90;;;999.90;;
4132;SDS011;2080;51.038;7.008;2023-04-23T00:12:32;1999.90;;;999.90;;
4132;SDS011;2080;51.038;7.008;2023-04-23T00:14:58;1999.90;;;999.90;;
4132;SDS011;2080;51.038;7.008;2023-04-23T00:17:24;1999.90;;;999.90;;
4132;SDS011;2080;51.038;7.008;2023-04-23T00:19:52;1999.90;;;999.90;;
4132;SDS011;2080;51.038;7.008;2023-04-23T00:22:17;1999.90;;;999.90;;
4132;SDS011;2080;51.038;7.008;2023-04-23T00:24:44;1999.90;;;999.90;;
4132;SDS011;2080;51.038;7.008;2023-04-23T00:27:10;1999.90;;;999.90;;
4132;SDS011;2080;51.038;7.008;2023-04-23T00:29:35;1999.90;;;999.90;;
4132;SDS011;2080;51.038;7.008;2023-04-23T00:32:01;1999.90;;;999.90;;
4132;SDS011;2080;51.038;7.008;2023-04-23T00:34:27;1999.90;;;999.90;;
4132;SDS011;2080;51.038;7.008;2023-04-23T00:36:52;1999.90;;;999.90;;
4132;SDS011;2080;51.038;7.008;2023-04-23T00:39:18;1999.90;;;999.90;;
4132;SDS011;2080;51.038;7.008;2023-04-23T00:41:43;1999.90;;;999.90;;
4132;SDS011;2080;51.038;7.008;2023-04-23T00:44:09;1999.90;;;999.90;;
4132;SDS011;2080;51.038;7.008;2023-04-23T00:46:35;1999.90;;;999.90;;
4132;SDS011;2080;51.038;7.008;2023-04-23T00:49:01;1999.90;;;999.90;;
4132;SDS011;2080;51.038;7.008;2023-04-23T00:51:27;1999.90;;;999.90;;
4132;SDS011;2080;51.038;7.008;2023-04-23T00:53:53;1999.90;;;999.90;;
4132;SDS011;2080;51.038;7.008;2023-04-23T00:56:20;1999.90;;;999.90;;
4132;SDS011;2080;51.038;7.008;2023-04-23T00:58:48;1999.90;;;999.90;;
4132;SDS011;2080;51.038;7.008;2023-04-23T01:01:14;1999.90;;;999.90;;
4132;SDS011;2080;51.038;7.008;2023-04-23T01:03:42;1999.90;;;999.90;;
4132;SDS011;2080;51.038;7.008;2023-04-23T01:06:07;1999.90;;;999.90;;
4132;SDS011;2080;51.038;7.008;2023-04-23T01:08:33;1999.90;;;999.90;;
4132;SDS011;2080;51.038;7.008;2023-04-23T01:11:00;1999.90;;;999.90;;
4132;SDS011;2080;51.038;7.008;2023-04-23T01:13:27;1999.90;;;999.90;;
4132;SDS011;2080;51.038;7.008;2023-04-23T01:15:54;1999.90;;;999.90;;
4132;SDS011;2080;51.038;7.008;2023-04-23T01:18:20;1999.90;;;999.90;;
4132;SDS011;2080;51.038;7.008;2023-04-23T01:20:47;1999.90;;;999.90;;
4132;SDS011;2080;51.038;7.008;2023-04-23T01:23:14;1999.90;;;999.90;;
4132;SDS011;2080;51.038;7.008;2023-04-23T01:25:42;1999.90;;;999.90;;
4132;SDS011;2080;51.038;7.008;2023-04-23T01:28:08;1999.90;;;999.90;;
4132;SDS011;2080;51.038;7.008;2023-04-23T01:30:33;1999.90;;;999.90;;
4132;SDS011;2080;51.038;7.008;2023-04-23T01:32:59;1999.90;;;999.90;;
4132;SDS011;2080;51.038;7.008;2023-04-23T01:35:27;1999.90;;;999.90;;
4132;SDS011;2080;51.038;7.008;2023-04-23T01:37:54;1999.90;;;999.90;;
4132;SDS011;2080;51.038;7.008;2023-04-23T01:40:21;1999.90;;;999.90;;
4132;SDS011;2080;51.038;7.008;2023-04-23T01:42:47;1999.90;;;999.90;;
4132;SDS011;2080;51.038;7.008;2023-04-23T01:45:13;1999.90;;;999.90;;
4132;SDS011;2080;51.038;7.008;2023-04-23T01:47:39;1999.90;;;999.90;;
4132;SDS011;2080;51.038;7.008;2023-04-23T01:50:06;1999.90;;;999.90;;
4132;SDS011;2080;51.038;7.008;2023-04-23T01:52:32;1999.90;;;999.90;;
4132;SDS011;2080;51.038;7.008;2023-04-23T01:54:58;1999.90;;;999.90;;
4132;SDS011;2080;51.038;7.008;2023-04-23T01:57:26;1999.90;;;999.90;;
4132;SDS011;2080;51.038;7.008;2023-04-23T01:59:56;1999.90;;;999.90;;
4132;SDS011;2080;51.038;7.008;2023-04-23T02:02:32;1999.90;;;999.90;;
4132;SDS011;2080;51.038;7.008;2023-04-23T02:04:58;1999.90;;;999.90;;
4132;SDS011;2080;51.038;7.008;2023-04-23T02:07:32;1999.90;;;999.90;;
4132;SDS011;2080;51.038;7.008;2023-04-23T02:09:58;1999.90;;;999.90;;
4132;SDS011;2080;51.038;7.008;2023-04-23T02:12:24;1999.90;;;999.90;;
4132;SDS011;2080;51.038;7.008;2023-04-23T02:14:50;1999.90;;;999.90;;
4132;SDS011;2080;51.038;7.008;2023-04-23T02:17:18;1999.90;;;999.90;;
4132;SDS011;2080;51.038;7.008;2023-04-23T02:19:45;1999.90;;;999.90;;
4132;SDS011;2080;51.038;7.008;2023-04-23T02:22:11;1999.90;;;999.90;;
4132;SDS011;2080;51.038;7.008;2023-04-23T02:24:36;1999.90;;;999.90;;
4132;SDS011;2080;51.038;7.008;2023-04-23T02:27:03;1999.90;;;999.90;;
4132;SDS011;2080;51.038;7.008;2023-04-23T02:29:29;1999.90;;;999.90;;
4132;SDS011;2080;51.038;7.008;2023-04-23T02:31:54;1999.90;;;999.90;;
4132;SDS011;2080;51.038;7.008;2023-04-23T02:34:20;1999.90;;;999.90;;
4132;SDS011;2080;51.038;7.008;2023-04-23T02:36:46;1999.90;;;999.90;;
4132;SDS011;2080;51.038;7.008;2023-04-23T02:39:14;1999.90;;;999.90;;
4132;SDS011;2080;51.038;7.008;2023-04-23T02:41:39;1999.90;;;999.90;;
4132;SDS011;2080;51.038;7.008;2023-04-23T02:44:05;1999.90;;;999.90;;
4132;SDS011;2080;51.038;7.008;2023-04-23T02:46:31;1999.90;;;999.90;;
4132;SDS011;2080;51.038;7.008;2023-04-23T02:48:56;1999.90;;;999.90;;
4132;SDS011;2080;51.038;7.008;2023-04-23T02:51:22;1999.90;;;999.90;;
4132;SDS011;2080;51.038;7.008;2023-04-23T02:53:47;1999.90;;;999.90;;
4132;SDS011;2080;51.038;7.008;2023-04-23T02:56:13;1999.90;;;999.90;;
4132;SDS011;2080;51.038;7.008;2023-04-23T02:58:38;1999.90;;;999.90;;
4132;SDS011;2080;51.038;7.008;2023-04-23T03:01:04;1999.90;;;999.90;;
4132;SDS011;2080;51.038;7.008;2023-04-23T03:03:30;1999.90;;;999.90;;
4132;SDS011;2080;51.038;7.008;2023-04-23T03:05:56;1999.90;;;999.90;;
4132;SDS011;2080;51.038;7.008;2023-04-23T03:08:21;1999.90;;;999.90;;
4132;SDS011;2080;51.038;7.008;2023-04-23T03:10:47;1999.90;;;999.90;;
4132;SDS011;2080;51.038;7.008;2023-04-23T03:13:13;1999.90;;;999.90;;
4132;SDS011;2080;51.038;7.008;2023-04-23T03:15:38;1999.90;;;999.90;;
4132;SDS011;2080;51.038;7.008;2023-04-23T03:18:06;1999.90;;;999.90;;
4132;SDS011;2080;51.038;7.008;2023-04-23T03:20:35;1999.90;;;999.90;;
4132;SDS011;2080;51.038;7.008;2023-04-23T03:23:00;1999.90;;;999.90;;
4132;SDS011;2080;51.038;7.008;2023-04-23T03:25:26;1999.90;;;999.90;;
4132;SDS011;2080;51.038;7.008;2023-04-23T03:27:52;1999.90;;;999.90;;
4132;SDS011;2080;51.038;7.008;2023-04-23T03:30:18;1999.90;;;999.90;;
4132;SDS011;2080;51.038;7.008;2023-04-23T03:32:44;1999.90;;;999.90;;
4132;SDS011;2080;51.038;7.008;2023-04-23T03:35:15;1999.90;;;999.90;;
4132;SDS011;2080;51.038;7.008;2023-04-23T03:37:40;1999.90;;;999.90;;
4132;SDS011;2080;51.038;7.008;2023-04-23T03:40:07;1999.90;;;999.90;;
4132;SDS011;2080;51.038;7.008;2023-04-23T03:42:34;1999.90;;;999.90;;
4132;SDS011;2080;51.038;7.008;2023-04-23T03:44:59;1999.90;;;999.90;;
4132;SDS011;2080;51.038;7.008;2023-04-23T03:47:27;1999.90;;;999.90;;
4132;SDS011;2080;51.038;7.008;2023-04-23T03:49:53;1999.90;;;999.90;;
4132;SDS011;2080;51.038;7.008;2023-04-23T03:52:19;1999.90;;;999.90;;
4132;SDS011;2080;51.038;7.008;2023-04-23T03:54:44;1999.90;;;999.90;;
4132;SDS011;2080;51.038;7.008;2023-04-23T03:57:10;1999.90;;;999.90;;
4132;SDS011;2080;51.038;7.008;2023-04-23T03:59:36;1999.90;;;999.90;;
4132;SDS011;2080;51.038;7.008;2023-04-23T04:02:02;1999.90;;;999.90;;
4132;SDS011;2080;51.038;7.008;2023-04-23T04:04:30;1999.90;;;999.90;;
4132;SDS011;2080;51.038;7.008;2023-04-23T04:06:57;1999.90;;;999.90;;
4132;SDS011;2080;51.038;7.008;2023-04-23T04:09:24;1999.90;;;999.90;;
4132;SDS011;2080;51.038;7.008;2023-04-23T04:11:51;1999.90;;;999.90;;
4132;SDS011;2080;51.038;7.008;2023-04-23T04:14:18;1999.90;;;999.90;;
4132;SDS011;2080;51.038;7.008;2023-04-23T04:16:43;1999.90;;;999.90;;
4132;SDS011;2080;51.038;7.008;2023-04-23T04:19:09;1999.90;;;999.90;;
4132;SDS011;2080;51.038;7.008;2023-04-23T04:21:34;1999.90;;;999.90;;
4132;SDS011;2080;51.038;7.008;2023-04-23T04:24:00;1999.90;;;999.90;;
4132;SDS011;2080;51.038;7.008;2023-04-23T04:26:26;1999.90;;;999.90;;
4132;SDS011;2080;51.038;7.008;2023-04-23T04:28:52;1999.90;;;999.90;;
4132;SDS011;2080;51.038;7.008;2023-04-23T04:31:20;1999.90;;;999.90;;
4132;SDS011;2080;51.038;7.008;2023-04-23T04:33:46;1999.90;;;999.90;;
4132;SDS011;2080;51.038;7.008;2023-04-23T04:36:11;1999.90;;;999.90;;
4132;SDS011;2080;51.038;7.008;2023-04-23T04:38:37;1999.90;;;999.90;;
4132;SDS011;2080;51.038;7.008;2023-04-23T04:41:03;1999.90;;;999.90;;
4132;SDS011;2080;51.038;7.008;2023-04-23T04:43:29;1999.90;;;999.90;;
4132;SDS011;2080;51.038;7.008;2023-04-23T04:45:55;1999.90;;;999.90;;
4132;SDS011;2080;51.038;7.008;2023-04-23T04:48:23;1999.90;;;999.90;;
4132;SDS011;2080;51.038;7.008;2023-04-23T04:50:49;1999.90;;;999.90;;
4132;SDS011;2080;51.038;7.008;2023-04-23T04:53:14;1999.90;;;999.90;;
4132;SDS011;2080;51.038;7.008;2023-04-23T04:55:40;1999.90;;;999.90;;
4132;SDS011;2080;51.038;7.008;2023-04-23T04:58:08;1999.90;;;999.90;;
4132;SDS011;2080;51.038;7.008;2023-04-23T05:00:33;1999.90;;;999.90;;
4132;SDS011;2080;51.038;7.008;2023-04-23T05:02:59;1999.90;;;999.90;;
4132;SDS011;2080;51.038;7.008;2023-04-23T05:05:25;1999.90;;;999.90;;
4132;SDS011;2080;51.038;7.008;2023-04-23T05:07:51;1999.90;;;999.90;;
4132;SDS011;2080;51.038;7.008;2023-04-23T05:10:18;1999.90;;;999.90;;
4132;SDS011;2080;51.038;7.008;2023-04-23T05:12:45;1999.90;;;999.90;;
4132;SDS011;2080;51.038;7.008;2023-04-23T05:15:13;1999.90;;;999.90;;
4132;SDS011;2080;51.038;7.008;2023-04-23T05:17:39;1999.90;;;999.90;;
4132;SDS011;2080;51.038;7.008;2023-04-23T05:20:09;1999.90;;;999.90;;
4132;SDS011;2080;51.038;7.008;2023-04-23T05:22:38;1999.90;;;999.90;;
4132;SDS011;2080;51.038;7.008;2023-04-23T05:25:08;1999.90;;;999.90;;
4132;SDS011;2080;51.038;7.008;2023-04-23T05:27:36;1999.90;;;999.90;;
4132;SDS011;2080;51.038;7.008;2023-04-23T05:30:02;1999.90;;;999.90;;
4132;SDS011;2080;51.038;7.008;2023-04-23T05:32:29;1999.90;;;999.90;;
4132;SDS011;2080;51.038;7.008;2023-04-23T05:34:55;1999.90;;;999.90;;
4132;SDS011;2080;51.038;7.008;2023-04-23T05:37:21;1999.90;;;999.90;;
4132;SDS011;2080;51.038;7.008;2023-04-23T05:39:46;1999.90;;;999.90;;
4132;SDS011;2080;51.038;7.008;2023-04-23T05:42:14;1999.90;;;999.90;;
4132;SDS011;2080;51.038;7.008;2023-04-23T05:44:39;1999.90;;;999.90;;
4132;SDS011;2080;51.038;7.008;2023-04-23T05:47:06;1999.90;;;999.90;;
4132;SDS011;2080;51.038;7.008;2023-04-23T05:49:35;1999.90;;;999.90;;
4132;SDS011;2080;51.038;7.008;2023-04-23T05:52:01;1999.90;;;999.90;;
4132;SDS011;2080;51.038;7.008;2023-04-23T05:54:29;1999.90;;;999.90;;
4132;SDS011;2080;51.038;7.008;2023-04-23T05:56:54;1999.90;;;999.90;;
4132;SDS011;2080;51.038;7.008;2023-04-23T05:59:20;1999.90;;;999.90;;
4132;SDS011;2080;51.038;7.008;2023-04-23T06:01:46;1999.90;;;999.90;;
4132;SDS011;2080;51.038;7.008;2023-04-23T06:04:14;1999.90;;;999.90;;
4132;SDS011;2080;51.038;7.008;2023-04-23T06:06:41;1999.90;;;999.90;;
4132;SDS011;2080;51.038;7.008;2023-04-23T06:09:06;1999.90;;;999.90;;
4132;SDS011;2080;51.038;7.008;2023-04-23T06:11:32;1999.90;;;999.90;;
4132;SDS011;2080;51.038;7.008;2023-04-23T06:14:00;1999.90;;;999.90;;
4132;SDS011;2080;51.038;7.008;2023-04-23T06:16:30;1999.90;;;999.90;;
4132;SDS011;2080;51.038;7.008;2023-04-23T06:18:56;1999.90;;;999.90;;
4132;SDS011;2080;51.038;7.008;2023-04-23T06:21:21;1999.90;;;999.90;;
4132;SDS011;2080;51.038;7.008;2023-04-23T06:23:47;1999.90;;;999.90;;
4132;SDS011;2080;51.038;7.008;2023-04-23T06:26:15;1999.90;;;999.90;;
4132;SDS011;2080;51.038;7.008;2023-04-23T06:28:44;1999.90;;;999.90;;
4132;SDS011;2080;51.038;7.008;2023-04-23T06:31:10;1999.90;;;999.90;;
4132;SDS011;2080;51.038;7.008;2023-04-23T06:33:36;1999.90;;;999.90;;
4132;SDS011;2080;51.038;7.008;2023-04-23T06:36:06;1999.90;;;999.90;;
4132;SDS011;2080;51.038;7.008;2023-04-23T06:38:35;1999.90;;;999.90;;
4132;SDS011;2080;51.038;7.008;2023-04-23T06:41:03;1999.90;;;999.90;;
4132;SDS011;2080;51.038;7.008;2023-04-23T06:43:31;1999.90;;;999.90;;
4132;SDS011;2080;51.038;7.008;2023-04-23T06:45:59;1999.90;;;999.90;;
4132;SDS011;2080;51.038;7.008;2023-04-23T06:48:27;1999.90;;;999.90;;
4132;SDS011;2080;51.038;7.008;2023-04-23T06:50:56;1999.90;;;999.90;;
4132;SDS011;2080;51.038;7.008;2023-04-23T06:53:22;1999.90;;;999.90;;
4132;SDS011;2080;51.038;7.008;2023-04-23T06:55:52;1999.90;;;999.90;;
4132;SDS011;2080;51.038;7.008;2023-04-23T06:58:17;1999.90;;;999.90;;
4132;SDS011;2080;51.038;7.008;2023-04-23T07:00:42;1999.90;;;999.90;;
4132;SDS011;2080;51.038;7.008;2023-04-23T07:03:08;1999.90;;;999.90;;
4132;SDS011;2080;51.038;7.008;2023-04-23T07:05:36;1999.90;;;999.90;;
4132;SDS011;2080;51.038;7.008;2023-04-23T07:08:01;1999.90;;;999.90;;
4132;SDS011;2080;51.038;7.008;2023-04-23T07:10:26;1999.90;;;999.90;;
4132;SDS011;2080;51.038;7.008;2023-04-23T07:12:52;1999.90;;;999.90;;
4132;SDS011;2080;51.038;7.008;2023-04-23T07:15:17;1999.90;;;999.90;;
4132;SDS011;2080;51.038;7.008;2023-04-23T07:17:43;1999.90;;;999.90;;
4132;SDS011;2080;51.038;7.008;2023-04-23T07:20:14;1999.90;;;999.90;;
4132;SDS011;2080;51.038;7.008;2023-04-23T07:22:42;1999.90;;;999.90;;
4132;SDS011;2080;51.038;7.008;2023-04-23T07:25:09;1999.90;;;999.90;;
4132;SDS011;2080;51.038;7.008;2023-04-23T07:27:40;1999.90;;;999.90;;
4132;SDS011;2080;51.038;7.008;2023-04-23T07:30:05;1999.90;;;999.90;;
4132;SDS011;2080;51.038;7.008;2023-04-23T07:32:32;1999.90;;;999.90;;
4132;SDS011;2080;51.038;7.008;2023-04-23T07:34:57;1999.90;;;999.90;;
4132;SDS011;2080;51.038;7.008;2023-04-23T07:37:25;1999.90;;;999.90;;
4132;SDS011;2080;51.038;7.008;2023-04-23T07:39:52;1999.90;;;999.90;;
4132;SDS011;2080;51.038;7.008;2023-04-23T07:42:22;1999.90;;;999.90;;
4132;SDS011;2080;51.038;7.008;2023-04-23T07:44:47;1999.90;;;999.90;;
4132;SDS011;2080;51.038;7.008;2023-04-23T07:47:15;1999.90;;;999.90;;
4132;SDS011;2080;51.038;7.008;2023-04-23T07:49:41;1999.90;;;999.90;;
4132;SDS011;2080;51.038;7.008;2023-04-23T07:52:06;1999.90;;;999.90;;
4132;SDS011;2080;51.038;7.008;2023-04-23T07:54:32;1999.90;;;999.90;;
4132;SDS011;2080;51.038;7.008;2023-04-23T07:56:57;1999.90;;;999.90;;
4132;SDS011;2080;51.038;7.008;2023-04-23T07:59:22;1999.90;;;999.90;;
4132;SDS011;2080;51.038;7.008;2023-04-23T08:01:50;1999.90;;;999.90;;
4132;SDS011;2080;51.038;7.008;2023-04-23T08:04:20;1999.90;;;999.90;;
4132;SDS011;2080;51.038;7.008;2023-04-23T08:06:45;1999.90;;;999.90;;
4132;SDS011;2080;51.038;7.008;2023-04-23T08:09:11;1999.90;;;999.90;;
4132;SDS011;2080;51.038;7.008;2023-04-23T08:11:36;1999.90;;;999.90;;
4132;SDS011;2080;51.038;7.008;2023-04-23T08:14:02;1999.90;;;999.90;;
4132;SDS011;2080;51.038;7.008;2023-04-23T08:16:33;1999.90;;;999.90;;
4132;SDS011;2080;51.038;7.008;2023-04-23T08:18:58;1999.90;;;999.90;;
4132;SDS011;2080;51.038;7.008;2023-04-23T08:21:26;1999.90;;;999.90;;
4132;SDS011;2080;51.038;7.008;2023-04-23T08:23:55;1999.90;;;999.90;;
4132;SDS011;2080;51.038;7.008;2023-04-23T08:26:31;1999.90;;;999.90;;
4132;SDS011;2080;51.038;7.008;2023-04-23T08:28:59;1579.15;;;989.28;;
4132;SDS011;2080;51.038;7.008;2023-04-23T08:31:28;1230.47;;;999.90;;
4132;SDS011;2080;51.038;7.008;2023-04-23T08:33:54;1119.78;;;999.90;;
4132;SDS011;2080;51.038;7.008;2023-04-23T08:36:19;1083.63;;;986.47;;
4132;SDS011;2080;51.038;7.008;2023-04-23T08:38:47;1024.07;;;933.55;;
4132;SDS011;2080;51.038;7.008;2023-04-23T08:41:13;1034.50;;;944.00;;
4132;SDS011;2080;51.038;7.008;2023-04-23T08:43:54;1015.95;;;926.97;;
4132;SDS011;2080;51.038;7.008;2023-04-23T08:46:32;1021.60;;;931.95;;
4132;SDS011;2080;51.038;7.008;2023-04-23T08:49:03;936.42;;;854.22;;
4132;SDS011;2080;51.038;7.008;2023-04-23T08:51:41;975.85;;;890.70;;
4132;SDS011;2080;51.038;7.008;2023-04-23T08:54:11;971.90;;;886.63;;
4132;SDS011;2080;51.038;7.008;2023-04-23T08:56:39;1021.58;;;931.22;;
4132;SDS011;2080;51.038;7.008;2023-04-23T08:59:06;1009.22;;;920.15;;
4132;SDS011;2080;51.038;7.008;2023-04-23T09:01:33;1036.30;;;945.78;;
4132;SDS011;2080;51.038;7.008;2023-04-23T09:03:59;1014.10;;;924.45;;
4132;SDS011;2080;51.038;7.008;2023-04-23T09:06:26;1008.25;;;919.70;;
4132;SDS011;2080;51.038;7.008;2023-04-23T09:08:51;1002.43;;;913.83;;
4132;SDS011;2080;51.038;7.008;2023-04-23T09:11:19;1013.13;;;923.45;;
4132;SDS011;2080;51.038;7.008;2023-04-23T09:13:48;983.80;;;898.05;;
4132;SDS011;2080;51.038;7.008;2023-04-23T09:16:16;998.95;;;911.95;;
4132;SDS011;2080;51.038;7.008;2023-04-23T09:18:41;1031.00;;;939.70;;
4132;SDS011;2080;51.038;7.008;2023-04-23T09:21:08;1041.18;;;948.92;;
4132;SDS011;2080;51.038;7.008;2023-04-23T09:23:37;1010.40;;;921.25;;
4132;SDS011;2080;51.038;7.008;2023-04-23T09:26:06;1039.37;;;946.80;;
4132;SDS011;2080;51.038;7.008;2023-04-23T09:28:37;992.75;;;906.17;;
4132;SDS011;2080;51.038;7.008;2023-04-23T09:31:07;1006.63;;;918.00;;
4132;SDS011;2080;51.038;7.008;2023-04-23T09:33:35;1034.35;;;943.13;;
4132;SDS011;2080;51.038;7.008;2023-04-23T09:36:09;1010.00;;;921.20;;
4132;SDS011;2080;51.038;7.008;2023-04-23T09:38:38;1011.53;;;923.38;;
4132;SDS011;2080;51.038;7.008;2023-04-23T09:41:18;1004.78;;;917.17;;
4132;SDS011;2080;51.038;7.008;2023-04-23T09:43:48;1025.20;;;935.25;;
4132;SDS011;2080;51.038;7.008;2023-04-23T09:46:15;1020.05;;;929.90;;
4132;SDS011;2080;51.038;7.008;2023-04-23T09:48:41;979.43;;;893.43;;
4132;SDS011;2080;51.038;7.008;2023-04-23T09:51:07;1020.28;;;930.47;;
4132;SDS011;2080;51.038;7.008;2023-04-23T09:53:42;1009.58;;;920.38;;
4132;SDS011;2080;51.038;7.008;2023-04-23T09:56:08;1040.50;;;948.72;;
4132;SDS011;2080;51.038;7.008;2023-04-23T09:58:34;1046.80;;;954.00;;
4132;SDS011;2080;51.038;7.008;2023-04-23T10:01:06;1007.92;;;919.58;;
4132;SDS011;2080;51.038;7.008;2023-04-23T10:03:33;852.20;;;776.33;;
4132;SDS011;2080;51.038;7.008;2023-04-23T10:05:58;1013.57;;;924.97;;
4132;SDS011;2080;51.038;7.008;2023-04-23T10:08:26;471.77;;;409.80;;
4132;SDS011;2080;51.038;7.008;2023-04-23T10:10:52;479.53;;;414.43;;
4132;SDS011;2080;51.038;7.008;2023-04-23T10:13:17;694.67;;;629.87;;
4132;SDS011;2080;51.038;7.008;2023-04-23T10:15:43;741.27;;;674.73;;
4132;SDS011;2080;51.038;7.008;2023-04-23T10:18:10;662.33;;;598.97;;
4132;SDS011;2080;51.038;7.008;2023-04-23T10:20:41;481.40;;;428.23;;
4132;SDS011;2080;51.038;7.008;2023-04-23T10:23:09;530.23;;;474.87;;
4132;SDS011;2080;51.038;7.008;2023-04-23T10:25:37;481.73;;;424.30;;
4132;SDS011;2080;51.038;7.008;2023-04-23T10:28:07;594.90;;;534.05;;
4132;SDS011;2080;51.038;7.008;2023-04-23T10:30:37;606.00;;;545.63;;
4132;SDS011;2080;51.038;7.008;2023-04-23T10:33:03;556.60;;;499.77;;
4132;SDS011;2080;51.038;7.008;2023-04-23T10:35:33;894.60;;;816.17;;
4132;SDS011;2080;51.038;7.008;2023-04-23T10:37:59;740.85;;;673.47;;
4132;SDS011;2080;51.038;7.008;2023-04-23T10:40:29;571.92;;;513.33;;
4132;SDS011;2080;51.038;7.008;2023-04-23T10:42:56;487.45;;;433.50;;
4132;SDS011;2080;51.038;7.008;2023-04-23T10:45:23;624.50;;;562.92;;
4132;SDS011;2080;51.038;7.008;2023-04-23T10:47:48;496.63;;;442.67;;
4132;SDS011;2080;51.038;7.008;2023-04-23T10:50:16;503.70;;;449.13;;
4132;SDS011;2080;51.038;7.008;2023-04-23T10:52:43;538.42;;;483.25;;
4132;SDS011;2080;51.038;7.008;2023-04-23T10:55:15;510.83;;;456.77;;
4132;SDS011;2080;51.038;7.008;2023-04-23T10:57:53;479.33;;;423.67;;
4132;SDS011;2080;51.038;7.008;2023-04-23T11:03:27;479.92;;;423.58;;
4132;SDS011;2080;51.038;7.008;2023-04-23T11:05:53;485.48;;;431.67;;
4132;SDS011;2080;51.038;7.008;2023-04-23T11:08:21;499.27;;;445.10;;
4132;SDS011;2080;51.038;7.008;2023-04-23T11:10:55;618.70;;;557.92;;
4132;SDS011;2080;51.038;7.008;2023-04-23T11:13:22;495.92;;;440.65;;
4132;SDS011;2080;51.038;7.008;2023-04-23T11:18:57;467.77;;;412.58;;
4132;SDS011;2080;51.038;7.008;2023-04-23T11:24:34;600.30;;;542.45;;
4132;SDS011;2080;51.038;7.008;2023-04-23T11:27:03;438.15;;;328.85;;
4132;SDS011;2080;51.038;7.008;2023-04-23T11:29:30;453.58;;;354.63;;
4132;SDS011;2080;51.038;7.008;2023-04-23T11:31:58;467.65;;;400.25;;
4132;SDS011;2080;51.038;7.008;2023-04-23T11:34:24;411.77;;;259.08;;
4132;SDS011;2080;51.038;7.008;2023-04-23T11:36:52;474.10;;;410.60;;
4132;SDS011;2080;51.038;7.008;2023-04-23T11:39:21;476.50;;;419.25;;
4132;SDS011;2080;51.038;7.008;2023-04-23T11:41:48;538.72;;;484.00;;
4132;SDS011;2080;51.038;7.008;2023-04-23T11:44:14;360.75;;;142.98;;
4132;SDS011;2080;51.038;7.008;2023-04-23T11:46:42;380.13;;;186.57;;
4132;SDS011;2080;51.038;7.008;2023-04-23T11:49:09;368.77;;;154.38;;
4132;SDS011;2080;51.038;7.008;2023-04-23T11:51:39;338.88;;;96.88;;
4132;SDS011;2080;51.038;7.008;2023-04-23T11:54:06;432.20;;;271.53;;
4132;SDS011;2080;51.038;7.008;2023-04-23T11:56:34;410.23;;;236.83;;
4132;SDS011;2080;51.038;7.008;2023-04-23T11:59:00;497.00;;;442.42;;
4132;SDS011;2080;51.038;7.008;2023-04-23T12:01:38;471.08;;;410.10;;
4132;SDS011;2080;51.038;7.008;2023-04-23T12:04:42;476.98;;;424.42;;
4132;SDS011;2080;51.038;7.008;2023-04-23T12:06:58;499.23;;;445.57;;
4132;SDS011;2080;51.038;7.008;2023-04-23T12:09:26;568.85;;;511.55;;
4132;SDS011;2080;51.038;7.008;2023-04-23T12:11:53;522.10;;;467.58;;
4132;SDS011;2080;51.038;7.008;2023-04-23T12:14:24;530.00;;;474.63;;
4132;SDS011;2080;51.038;7.008;2023-04-23T12:16:52;500.00;;;446.20;;
4132;SDS011;2080;51.038;7.008;2023-04-23T12:19:19;423.75;;;257.38;;
4132;SDS011;2080;51.038;7.008;2023-04-23T12:21:46;500.95;;;447.05;;
4132;SDS011;2080;51.038;7.008;2023-04-23T12:24:13;482.50;;;429.80;;
4132;SDS011;2080;51.038;7.008;2023-04-23T12:26:41;466.20;;;403.88;;
4132;SDS011;2080;51.038;7.008;2023-04-23T12:29:11;518.97;;;465.48;;
4132;SDS011;2080;51.038;7.008;2023-04-23T12:31:37;411.40;;;254.35;;
4132;SDS011;2080;51.038;7.008;2023-04-23T12:34:06;426.38;;;283.52;;
4132;SDS011;2080;51.038;7.008;2023-04-23T12:36:33;377.80;;;166.05;;
4132;SDS011;2080;51.038;7.008;2023-04-23T12:41:50;440.30;;;337.90;;
4132;SDS011;2080;51.038;7.008;2023-04-23T12:44:17;353.57;;;84.13;;
4132;SDS011;2080;51.038;7.008;2023-04-23T12:46:48;357.08;;;106.72;;
4132;SDS011;2080;51.038;7.008;2023-04-23T12:49:18;352.55;;;129.65;;
4132;SDS011;2080;51.038;7.008;2023-04-23T12:51:43;343.97;;;97.77;;
4132;SDS011;2080;51.038;7.008;2023-04-23T12:54:08;493.00;;;440.30;;
4132;SDS011;2080;51.038;7.008;2023-04-23T12:56:37;439.10;;;311.00;;
4132;SDS011;2080;51.038;7.008;2023-04-23T12:59:02;330.57;;;78.10;;
4132;SDS011;2080;51.038;7.008;2023-04-23T13:01:29;398.47;;;246.10;;
4132;SDS011;2080;51.038;7.008;2023-04-23T13:03:58;380.35;;;181.63;;
4132;SDS011;2080;51.038;7.008;2023-04-23T13:06:23;393.52;;;207.10;;
4132;SDS011;2080;51.038;7.008;2023-04-23T13:08:52;362.73;;;163.30;;
4132;SDS011;2080;51.038;7.008;2023-04-23T13:11:20;376.40;;;189.63;;
4132;SDS011;2080;51.038;7.008;2023-04-23T13:13:49;350.73;;;133.07;;
4132;SDS011;2080;51.038;7.008;2023-04-23T13:16:15;337.98;;;102.32;;
4132;SDS011;2080;51.038;7.008;2023-04-23T13:18:41;347.37;;;99.90;;
4132;SDS011;2080;51.038;7.008;2023-04-23T13:21:08;426.43;;;318.50;;
4132;SDS011;2080;51.038;7.008;2023-04-23T13:23:34;357.92;;;131.77;;
4132;SDS011;2080;51.038;7.008;2023-04-23T13:26:01;382.87;;;200.70;;
4132;SDS011;2080;51.038;7.008;2023-04-23T13:28:27;408.17;;;262.40;;
4132;SDS011;2080;51.038;7.008;2023-04-23T13:30:56;351.98;;;129.38;;
4132;SDS011;2080;51.038;7.008;2023-04-23T13:33:21;352.23;;;113.97;;
4132;SDS011;2080;51.038;7.008;2023-04-23T13:35:47;351.70;;;113.27;;
4132;SDS011;2080;51.038;7.008;2023-04-23T13:38:15;409.37;;;271.10;;
4132;SDS011;2080;51.038;7.008;2023-04-23T13:40:43;351.63;;;134.13;;
4132;SDS011;2080;51.038;7.008;2023-04-23T13:43:08;368.88;;;167.00;;
4132;SDS011;2080;51.038;7.008;2023-04-23T13:45:36;339.35;;;106.50;;
4132;SDS011;2080;51.038;7.008;2023-04-23T13:48:01;413.33;;;276.80;;
4132;SDS011;2080;51.038;7.008;2023-04-23T13:50:27;342.85;;;114.82;;
4132;SDS011;2080;51.038;7.008;2023-04-23T13:52:55;356.83;;;140.00;;
4132;SDS011;2080;51.038;7.008;2023-04-23T13:55:23;342.52;;;90.60;;
4132;SDS011;2080;51.038;7.008;2023-04-23T13:57:52;395.27;;;205.50;;
4132;SDS011;2080;51.038;7.008;2023-04-23T14:00:21;389.83;;;189.85;;
4132;SDS011;2080;51.038;7.008;2023-04-23T14:02:48;420.08;;;280.02;;
4132;SDS011;2080;51.038;7.008;2023-04-23T14:05:13;405.10;;;230.35;;
4132;SDS011;2080;51.038;7.008;2023-04-23T14:07:39;349.15;;;122.82;;
4132;SDS011;2080;51.038;7.008;2023-04-23T14:10:05;374.90;;;156.75;;
4132;SDS011;2080;51.038;7.008;2023-04-23T14:12:30;399.50;;;208.73;;
4132;SDS011;2080;51.038;7.008;2023-04-23T14:14:56;448.00;;;349.27;;
4132;SDS011;2080;51.038;7.008;2023-04-23T14:17:21;399.37;;;240.10;;
4132;SDS011;2080;51.038;7.008;2023-04-23T14:19:54;371.02;;;165.20;;
4132;SDS011;2080;51.038;7.008;2023-04-23T14:22:20;351.30;;;127.73;;
4132;SDS011;2080;51.038;7.008;2023-04-23T14:24:45;379.80;;;190.43;;